Map

Track Data

SID SEASON NUMBER BASIN SUBBASIN NAME ISO_TIME NATURE LAT LON WMO_WIND WMO_PRES WMO_AGENCY TRACK_TYPE DIST2LAND LANDFALL IFLAG USA_AGENCY USA_ATCF_ID USA_LAT USA_LON USA_RECORD USA_STATUS USA_WIND USA_PRES USA_SSHS USA_R34_NE USA_R34_SE USA_R34_SW USA_R34_NW USA_R50_NE USA_R50_SE USA_R50_SW USA_R50_NW USA_R64_NE USA_R64_SE USA_R64_SW USA_R64_NW USA_POCI USA_ROCI USA_RMW USA_EYE TOKYO_LAT TOKYO_LON TOKYO_GRADE TOKYO_WIND TOKYO_PRES TOKYO_R50_DIR TOKYO_R50_LONG TOKYO_R50_SHORT TOKYO_R30_DIR TOKYO_R30_LONG TOKYO_R30_SHORT TOKYO_LAND CMA_LAT CMA_LON CMA_CAT CMA_WIND CMA_PRES HKO_LAT HKO_LON HKO_CAT HKO_WIND HKO_PRES NEWDELHI_LAT NEWDELHI_LON NEWDELHI_GRADE NEWDELHI_WIND NEWDELHI_PRES NEWDELHI_CI NEWDELHI_DP NEWDELHI_POCI REUNION_LAT REUNION_LON REUNION_TYPE REUNION_WIND REUNION_PRES REUNION_TNUM REUNION_CI REUNION_RMW REUNION_R34_NE REUNION_R34_SE REUNION_R34_SW REUNION_R34_NW REUNION_R50_NE REUNION_R50_SE REUNION_R50_SW REUNION_R50_NW REUNION_R64_NE REUNION_R64_SE REUNION_R64_SW REUNION_R64_NW BOM_LAT BOM_LON BOM_TYPE BOM_WIND BOM_PRES BOM_TNUM BOM_CI BOM_RMW BOM_R34_NE BOM_R34_SE BOM_R34_SW BOM_R34_NW BOM_R50_NE BOM_R50_SE BOM_R50_SW BOM_R50_NW BOM_R64_NE BOM_R64_SE BOM_R64_SW BOM_R64_NW BOM_ROCI BOM_POCI BOM_EYE BOM_POS_METHOD BOM_PRES_METHOD NADI_LAT NADI_LON NADI_CAT NADI_WIND NADI_PRES WELLINGTON_LAT WELLINGTON_LON WELLINGTON_WIND WELLINGTON_PRES DS824_LAT DS824_LON DS824_STAGE DS824_WIND DS824_PRES TD9636_LAT TD9636_LON TD9636_STAGE TD9636_WIND TD9636_PRES TD9635_LAT TD9635_LON TD9635_WIND TD9635_PRES TD9635_ROCI NEUMANN_LAT NEUMANN_LON NEUMANN_CLASS NEUMANN_WIND NEUMANN_PRES MLC_LAT MLC_LON MLC_CLASS MLC_WIND MLC_PRES USA_GUST BOM_GUST BOM_GUST_PER REUNION_GUST REUNION_GUST_PER USA_SEAHGT USA_SEARAD_NE USA_SEARAD_SE USA_SEARAD_SW USA_SEARAD_NW STORM_SPEED STORM_DIR
1965161N16111 1965 47 WP MM NOT_NAMED 1965-06-09 18:00:00 TS 16.0000 110.500 main 193 193 __O___________ -1 16.0000 110.500 0 17 1002 10 73
1965161N16111 1965 47 WP MM NOT_NAMED 1965-06-09 21:00:00 TS 16.1426 110.993 main 246 246 __P___________ -1 16.1426 110.993 0 17 1002 10 67
1965161N16111 1965 47 WP MM NOT_NAMED 1965-06-10 00:00:00 TS 16.4000 111.500 main 274 265 __O___________ -1 16.4000 111.500 0 17 1002 12 55
1965161N16111 1965 47 WP MM NOT_NAMED 1965-06-10 03:00:00 TS 16.8351 112.010 main 271 261 __P___________ -1 16.8351 112.010 0 17 1001 13 44
1965161N16111 1965 47 WP MM NOT_NAMED 1965-06-10 06:00:00 TS 17.3000 112.400 main 261 256 __O___________ -1 17.3000 112.400 0 17 1000 10 35
1965161N16111 1965 47 WP MM NOT_NAMED 1965-06-10 09:00:00 TS 17.6597 112.620 main 253 243 __P___________ -1 17.6597 112.620 0 17 1000 6 18
1965161N16111 1965 47 WP MM NOT_NAMED 1965-06-10 12:00:00 TS 17.9000 112.600 main 243 209 __O___________ -1 17.9000 112.600 0 17 1001 4 318
1965161N16111 1965 47 WP MM NOT_NAMED 1965-06-10 15:00:00 TS 17.9726 112.325 main 209 172 __P___________ -1 17.9726 112.325 0 20 1001 7 279
1965161N16111 1965 47 WP MM NOT_NAMED 1965-06-10 18:00:00 TS 18.0000 111.900 main 172 131 __O___________ -1 18.0000 111.900 1 23 1001 8 280
1965161N16111 1965 47 WP MM NOT_NAMED 1965-06-10 21:00:00 TS 18.1050 111.507 main 131 84 __P___________ -1 18.1050 111.507 1 23 1001 8 292
1965161N16111 1965 47 WP MM NOT_NAMED 1965-06-11 00:00:00 TS 18.3000 111.100 main 84 30 __O___________ -1 18.3000 111.100 1 23 1001 9 303
1965161N16111 1965 47 WP MM NOT_NAMED 1965-06-11 03:00:00 TS 18.6201 110.670 main 30 0 __P___________ -1 18.6201 110.670 1 23 1001 10 313
1965161N16111 1965 47 WP MM NOT_NAMED 1965-06-11 06:00:00 TS 19.0000 110.300 main 0 0 __O___________ -1 19.0000 110.300 1 23 1001 9 325
1965161N16111 1965 47 WP MM NOT_NAMED 1965-06-11 09:00:00 TS 19.3797 110.107 main 0 0 __P___________ -1 19.3797 110.107 1 23 1001 8 332
1965161N16111 1965 47 WP MM NOT_NAMED 1965-06-11 12:00:00 TS 19.7000 109.900 main 0 0 __O___________ -1 19.7000 109.900 1 23 1001 8 313
1965161N16111 1965 47 WP MM NOT_NAMED 1965-06-11 15:00:00 TS 19.8948 109.525 main 0 0 __P___________ -1 19.8948 109.525 1 21 1001 9 290
1965161N16111 1965 47 WP MM NOT_NAMED 1965-06-11 18:00:00 TS 20.0000 109.000 main 38 38 __O___________ -1 20.0000 109.000 0 19 1002 12 277
1965161N16111 1965 47 WP MM NOT_NAMED 1965-06-11 21:00:00 TS 20.0431 108.292 main 79 79 __P___________ -1 20.0431 108.292 0 19 1002 13 274
1965161N16111 1965 47 WP MM NOT_NAMED 1965-06-12 00:00:00 TS 20.1000 107.600 main 98 63 __O___________ -1 20.1000 107.600 0 19 1002 11 281
1965161N16111 1965 47 WP MM NOT_NAMED 1965-06-12 03:00:00 TS 20.2546 107.140 main 52 22 __P___________ -1 20.2546 107.140 0 1002 9 298
1965161N16111 1965 47 WP MM NOT_NAMED 1965-06-12 06:00:00 TS 20.5000 106.800 main 22 0 __O___________ -1 20.5000 106.800 0 1002 8 313
1965161N16111 1965 47 WP MM NOT_NAMED 1965-06-12 09:00:00 TS 20.8277 106.495 main 0 0 __P___________ -1 20.8277 106.495 0 1002 9 321
1965161N16111 1965 47 WP MM NOT_NAMED 1965-06-12 12:00:00 TS 21.2000 106.200 main 0 __O___________ -1 21.2000 106.200 0 1002 9 324

Digital Typhoon Data and Search

About IBTrACS Database

This database is a web-friendly format of International Best Track Archive for Climate Stewardship (IBTrACS), a global best track data archive curated by NOAA dating back to 1842.

Updated: 2021-11-26